This is the latest recevied weather packets stored in our database for station/object OH2HCY-3. If no packets are shown the sender has not sent any weather packets the latest 10 day(s).
| Time | Temp. | Humidity | Pressure | Rain* | Wind** | Luminosity | Snow |
|---|---|---|---|---|---|---|---|
| 1787589167 | 17.78° C | 61% | 1014.1 hPa | - | - | - | - |
| 1787588062 | 17.22° C | 61% | 1014.1 hPa | - | - | - | - |
| 1787587012 | 17.78° C | 58% | 1014 hPa | - | - | - | - |
| 1787585837 | 17.78° C | 56% | 1013.9 hPa | - | - | - | - |
| 1787584672 | 16.67° C | 61% | 1013.9 hPa | - | - | - | - |
| 1787583677 | 17.22° C | 61% | 1013.7 hPa | - | - | - | - |
| 1787582579 | 18.89° C | 53% | 1013.5 hPa | - | - | - | - |
| 1787581521 | 18.89° C | 51% | 1013.5 hPa | - | - | - | - |
| 1787580487 | 18.89° C | 54% | 1013.3 hPa | - | - | - | - |
| 1787579419 | 17.78° C | 62% | 1013.4 hPa | - | - | - | - |
| 1787579414 | 17.78° C | 62% | 1013.4 hPa | - | - | - | - |
| 1787578237 | 18.33° C | 57% | 1013.3 hPa | - | - | - | - |
| 1787577042 | 18.33° C | 59% | 1013.2 hPa | - | - | - | - |
| 1787575957 | 17.78° C | 57% | 1013.1 hPa | - | - | - | - |
| 1787574921 | 18.89° C | 54% | 1012.9 hPa | - | - | - | - |
| 1787574917 | 18.89° C | 54% | 1012.9 hPa | - | - | - | - |
| 1787573907 | 18.89° C | 56% | 1012.8 hPa | - | - | - | - |
| 1787572817 | 18.89° C | 55% | 1012.7 hPa | - | - | - | - |
| 1787571737 | 18.89° C | 58% | 1012.7 hPa | - | - | - | - |
| 1787570639 | 18.33° C | 59% | 1012.6 hPa | - | - | - | - |
| 1787569512 | 17.78° C | 62% | 1012.5 hPa | - | - | - | - |
| 1787568424 | 17.78° C | 63% | 1012.5 hPa | - | - | - | - |
| 1787567377 | 17.78° C | 63% | 1012.3 hPa | - | - | - | - |
| 1787566237 | 17.22° C | 64% | 1012.4 hPa | - | - | - | - |
| 1787565202 | 17.22° C | 65% | 1012.2 hPa | - | - | - | - |
* Rain since midnight (hover to see other rain measurements)
** Current wind speed in m/s (hover to see current wind gust speed)